Terminal Aerodrome Forecast
Issued by NWS Amarillo, TX

Home | Current Version | Previous Version | Text Only | Print | Product List | Glossary On
Versions: 1 2 3 4 5 6 7 8 9 10 11 12 13 14 15 16
569
FTUS44 KAMA 171549 AAD
TAFGUY
TAF AMD
KGUY 171549Z 1716/1812 33013G23KT P6SM BKN016
     FM171700 35016KT P6SM BKN012
     FM180100 VRB04KT P6SM FEW150
     FM180900 21006KT P6SM BKN100=

USA.gov is the U.S. government's official web portal to all federal, state and local government web resources and services.